EWG5T EGPH-EDDL
Flight info
| Callsign | EWG5T |
|---|---|
| Flight time | 1h 17m |
| Altitude | 37000 |
| Route | TLA Y96 HAVEN DCT OTBUN DCT AGPED DCT NATEB DCT ROXAT DCT GODOS DCT BERGI DCT PAM P62 PISAP PISAP1A |
| Aircraft | A320/M-SDE2E3FGIJ1RWXY/HB1 |
Departure
| Time | 2026-05-06 11:55 |
|---|---|
| Airport | Edinburgh Airport (EGPH) |
Arrival
| Time | 2026-05-06 13:12 |
|---|---|
| Airport | Düsseldorf Airport (EDDL) |
| Time | Latitude | Longitude | Altitude | Speed | Heading |
|---|---|---|---|---|---|
| 2026-05-06 11:44 | 55.94948 | -3.36366 | 112 ft | 0 kts | 148° |
| 2026-05-06 11:45 | 55.94949 | -3.36366 | 112 ft | 0 kts | 148° |
| 2026-05-06 11:46 | 55.94960 | -3.36379 | 111 ft | 3 kts | 150° |
| 2026-05-06 11:46 | 55.94978 | -3.36395 | 111 ft | 3 kts | 158° |
| 2026-05-06 11:46 | 55.94996 | -3.36406 | 112 ft | 3 kts | 177° |
| 2026-05-06 11:46 | 55.95013 | -3.36402 | 112 ft | 2 kts | 225° |
| 2026-05-06 11:47 | 55.95017 | -3.36395 | 111 ft | 0 kts | 238° |
| 2026-05-06 11:48 | 55.95011 | -3.36412 | 112 ft | 5 kts | 238° |
| 2026-05-06 11:49 | 55.94991 | -3.36471 | 111 ft | 7 kts | 239° |
| 2026-05-06 11:49 | 55.94942 | -3.36617 | 112 ft | 16 kts | 239° |
| 2026-05-06 11:49 | 55.94897 | -3.36757 | 112 ft | 10 kts | 253° |
| 2026-05-06 11:49 | 55.94908 | -3.36808 | 112 ft | 0 kts | 311° |
| 2026-05-06 11:50 | 55.94925 | -3.36891 | 112 ft | 14 kts | 252° |
| 2026-05-06 11:50 | 55.94883 | -3.37026 | 112 ft | 12 kts | 240° |
| 2026-05-06 11:50 | 55.94840 | -3.37152 | 112 ft | 14 kts | 239° |
| 2026-05-06 11:50 | 55.94788 | -3.37306 | 111 ft | 14 kts | 238° |
| 2026-05-06 11:51 | 55.94741 | -3.37445 | 112 ft | 12 kts | 238° |
| 2026-05-06 11:51 | 55.94698 | -3.37570 | 112 ft | 11 kts | 239° |
| 2026-05-06 11:51 | 55.94662 | -3.37678 | 111 ft | 9 kts | 239° |
| 2026-05-06 11:51 | 55.94624 | -3.37790 | 113 ft | 14 kts | 239° |
| 2026-05-06 11:52 | 55.94572 | -3.37943 | 113 ft | 17 kts | 238° |
| 2026-05-06 11:52 | 55.94508 | -3.38131 | 110 ft | 18 kts | 240° |
| 2026-05-06 11:52 | 55.94447 | -3.38312 | 111 ft | 15 kts | 239° |
| 2026-05-06 11:52 | 55.94395 | -3.38466 | 112 ft | 14 kts | 239° |
| 2026-05-06 11:53 | 55.94353 | -3.38591 | 115 ft | 12 kts | 239° |
| 2026-05-06 11:53 | 55.94297 | -3.38751 | 113 ft | 16 kts | 237° |
| 2026-05-06 11:53 | 55.94301 | -3.38881 | 115 ft | 10 kts | 321° |
| 2026-05-06 11:53 | 55.94359 | -3.38944 | 114 ft | 10 kts | 328° |
| 2026-05-06 11:54 | 55.94418 | -3.38965 | 115 ft | 8 kts | 33° |
| 2026-05-06 11:54 | 55.94428 | -3.38939 | 113 ft | 0 kts | 58° |
| 2026-05-06 11:54 | 55.94435 | -3.38917 | 115 ft | 10 kts | 58° |
| 2026-05-06 11:54 | 55.94603 | -3.38422 | 111 ft | 83 kts | 59° |
| 2026-05-06 11:55 | 55.95007 | -3.37231 | 112 ft | 140 kts | 59° |
| 2026-05-06 11:55 | 55.95563 | -3.35637 | 585 ft | 150 kts | 58° |
| 2026-05-06 11:55 | 55.96162 | -3.34102 | 1342 ft | 152 kts | 46° |
| 2026-05-06 11:55 | 55.96988 | -3.32723 | 1752 ft | 172 kts | 44° |
| 2026-05-06 11:56 | 55.97902 | -3.31245 | 2251 ft | 187 kts | 44° |
| 2026-05-06 11:56 | 55.98906 | -3.29620 | 2677 ft | 204 kts | 44° |
| 2026-05-06 11:56 | 55.99996 | -3.27839 | 3099 ft | 222 kts | 44° |
| 2026-05-06 11:56 | 56.01199 | -3.25886 | 3574 ft | 243 kts | 43° |
| 2026-05-06 11:57 | 56.02503 | -3.23794 | 4195 ft | 258 kts | 43° |
| 2026-05-06 11:57 | 56.03857 | -3.21620 | 5088 ft | 263 kts | 42° |
| 2026-05-06 11:57 | 56.05050 | -3.19104 | 5949 ft | 270 kts | 60° |
| 2026-05-06 11:57 | 56.05625 | -3.15883 | 6802 ft | 276 kts | 84° |
| 2026-05-06 11:58 | 56.05445 | -3.12450 | 7636 ft | 281 kts | 106° |
| 2026-05-06 11:58 | 56.04567 | -3.09313 | 8478 ft | 285 kts | 129° |
| 2026-05-06 11:58 | 56.03058 | -3.07029 | 9320 ft | 287 kts | 152° |
| 2026-05-06 11:58 | 56.01280 | -3.05446 | 10152 ft | 290 kts | 155° |
| 2026-05-06 11:59 | 55.99408 | -3.03831 | 10556 ft | 310 kts | 155° |
| 2026-05-06 11:59 | 55.97395 | -3.02107 | 10904 ft | 329 kts | 155° |
| 2026-05-06 11:59 | 55.95306 | -3.00316 | 11581 ft | 335 kts | 155° |
| 2026-05-06 11:59 | 55.93187 | -2.98495 | 12325 ft | 340 kts | 155° |
| 2026-05-06 12:00 | 55.91040 | -2.96644 | 13070 ft | 345 kts | 156° |
| 2026-05-06 12:00 | 55.88868 | -2.94769 | 13792 ft | 350 kts | 156° |
| 2026-05-06 12:00 | 55.86659 | -2.92863 | 14438 ft | 354 kts | 156° |
| 2026-05-06 12:00 | 55.84429 | -2.90949 | 15097 ft | 357 kts | 156° |
| 2026-05-06 12:01 | 55.82177 | -2.89022 | 15754 ft | 361 kts | 156° |
| 2026-05-06 12:01 | 55.79906 | -2.87083 | 16408 ft | 364 kts | 156° |
| 2026-05-06 12:01 | 55.77602 | -2.85115 | 17060 ft | 367 kts | 157° |
| 2026-05-06 12:01 | 55.75286 | -2.83135 | 17711 ft | 371 kts | 157° |
| 2026-05-06 12:02 | 55.72977 | -2.81160 | 18345 ft | 374 kts | 157° |
| 2026-05-06 12:02 | 55.70615 | -2.79144 | 18893 ft | 378 kts | 157° |
| 2026-05-06 12:02 | 55.68241 | -2.77122 | 19453 ft | 381 kts | 157° |
| 2026-05-06 12:02 | 55.65830 | -2.75076 | 20008 ft | 384 kts | 157° |
| 2026-05-06 12:03 | 55.63406 | -2.73023 | 20566 ft | 387 kts | 157° |
| 2026-05-06 12:03 | 55.60960 | -2.70951 | 21117 ft | 390 kts | 158° |
| 2026-05-06 12:03 | 55.58500 | -2.68869 | 21668 ft | 394 kts | 158° |
| 2026-05-06 12:03 | 55.56046 | -2.66796 | 22203 ft | 397 kts | 158° |
| 2026-05-06 12:04 | 55.53544 | -2.64687 | 22739 ft | 400 kts | 158° |
| 2026-05-06 12:04 | 55.51017 | -2.62558 | 23273 ft | 404 kts | 158° |
| 2026-05-06 12:04 | 55.48474 | -2.60420 | 23765 ft | 407 kts | 158° |
| 2026-05-06 12:04 | 55.45903 | -2.58260 | 24202 ft | 410 kts | 158° |
| 2026-05-06 12:05 | 55.43323 | -2.56100 | 24632 ft | 412 kts | 158° |
| 2026-05-06 12:05 | 55.40718 | -2.53921 | 25048 ft | 415 kts | 158° |
| 2026-05-06 12:05 | 55.38107 | -2.51736 | 25453 ft | 417 kts | 158° |
| 2026-05-06 12:05 | 55.35477 | -2.49534 | 25859 ft | 420 kts | 158° |
| 2026-05-06 12:06 | 55.32825 | -2.47315 | 26243 ft | 422 kts | 156° |
| 2026-05-06 12:06 | 55.30283 | -2.44642 | 26622 ft | 428 kts | 146° |
| 2026-05-06 12:06 | 55.28010 | -2.41206 | 26998 ft | 433 kts | 136° |
| 2026-05-06 12:06 | 55.26090 | -2.37103 | 27374 ft | 438 kts | 125° |
| 2026-05-06 12:07 | 55.24547 | -2.32552 | 27746 ft | 441 kts | 121° |
| 2026-05-06 12:07 | 55.23027 | -2.27849 | 28125 ft | 443 kts | 121° |
| 2026-05-06 12:07 | 55.21499 | -2.23155 | 28485 ft | 445 kts | 121° |
| 2026-05-06 12:07 | 55.19957 | -2.18451 | 28846 ft | 447 kts | 121° |
| 2026-05-06 12:08 | 55.18399 | -2.13726 | 29189 ft | 449 kts | 121° |
| 2026-05-06 12:08 | 55.16829 | -2.08971 | 29546 ft | 451 kts | 121° |
| 2026-05-06 12:08 | 55.15254 | -2.04202 | 29875 ft | 453 kts | 121° |
| 2026-05-06 12:08 | 55.13671 | -1.99413 | 30185 ft | 455 kts | 121° |
| 2026-05-06 12:09 | 55.12080 | -1.94601 | 30444 ft | 457 kts | 121° |
| 2026-05-06 12:09 | 55.10506 | -1.89841 | 30696 ft | 459 kts | 121° |
| 2026-05-06 12:09 | 55.08900 | -1.84997 | 30949 ft | 461 kts | 122° |
| 2026-05-06 12:09 | 55.07285 | -1.80145 | 31195 ft | 463 kts | 122° |
| 2026-05-06 12:10 | 55.05658 | -1.75279 | 31427 ft | 465 kts | 122° |
| 2026-05-06 12:10 | 55.04027 | -1.70409 | 31726 ft | 464 kts | 122° |
| 2026-05-06 12:10 | 55.02415 | -1.65508 | 32071 ft | 464 kts | 121° |
| 2026-05-06 12:10 | 55.00852 | -1.60600 | 32396 ft | 463 kts | 120° |
| 2026-05-06 12:11 | 54.99311 | -1.55663 | 32733 ft | 463 kts | 120° |
| 2026-05-06 12:11 | 54.97785 | -1.50731 | 33059 ft | 462 kts | 120° |
| 2026-05-06 12:11 | 54.96260 | -1.45803 | 33384 ft | 462 kts | 120° |
| 2026-05-06 12:11 | 54.94730 | -1.40902 | 33713 ft | 461 kts | 121° |
| 2026-05-06 12:12 | 54.93184 | -1.36004 | 34046 ft | 460 kts | 121° |
| 2026-05-06 12:12 | 54.91632 | -1.31134 | 34324 ft | 460 kts | 121° |
| 2026-05-06 12:12 | 54.90074 | -1.26273 | 34573 ft | 460 kts | 121° |
| 2026-05-06 12:12 | 54.88515 | -1.21418 | 34810 ft | 460 kts | 121° |
| 2026-05-06 12:13 | 54.86974 | -1.16623 | 35033 ft | 460 kts | 121° |
| 2026-05-06 12:13 | 54.85411 | -1.11763 | 35264 ft | 461 kts | 121° |
| 2026-05-06 12:13 | 54.83851 | -1.06911 | 35476 ft | 461 kts | 121° |
| 2026-05-06 12:13 | 54.82813 | -1.03690 | 35616 ft | 461 kts | 121° |
| 2026-05-06 12:14 | 54.81248 | -0.98837 | 35828 ft | 461 kts | 121° |
| 2026-05-06 12:14 | 54.79676 | -0.93971 | 36035 ft | 461 kts | 121° |
| 2026-05-06 12:14 | 54.78106 | -0.89131 | 36237 ft | 461 kts | 122° |
| 2026-05-06 12:14 | 54.76532 | -0.84283 | 36435 ft | 461 kts | 122° |
| 2026-05-06 12:15 | 54.74953 | -0.79425 | 36643 ft | 461 kts | 122° |
| 2026-05-06 12:15 | 54.73380 | -0.74598 | 36817 ft | 461 kts | 122° |
| 2026-05-06 12:15 | 54.71802 | -0.69759 | 37013 ft | 461 kts | 122° |
| 2026-05-06 12:15 | 54.70223 | -0.64929 | 37084 ft | 460 kts | 122° |
| 2026-05-06 12:16 | 54.67068 | -0.55318 | 37082 ft | 458 kts | 122° |
| 2026-05-06 12:16 | 54.63937 | -0.45809 | 37084 ft | 457 kts | 122° |
| 2026-05-06 12:17 | 54.60774 | -0.36261 | 37081 ft | 457 kts | 122° |
| 2026-05-06 12:17 | 54.57614 | -0.26739 | 37081 ft | 456 kts | 122° |
| 2026-05-06 12:18 | 54.54456 | -0.17247 | 37076 ft | 456 kts | 122° |
| 2026-05-06 12:18 | 54.51306 | -0.07841 | 37071 ft | 456 kts | 123° |
| 2026-05-06 12:19 | 54.48127 | 0.01605 | 37069 ft | 455 kts | 123° |
| 2026-05-06 12:19 | 54.44948 | 0.11036 | 37064 ft | 455 kts | 123° |
| 2026-05-06 12:20 | 54.41763 | 0.20448 | 37063 ft | 455 kts | 123° |
| 2026-05-06 12:20 | 54.38566 | 0.29862 | 37059 ft | 455 kts | 123° |
| 2026-05-06 12:21 | 54.35384 | 0.39177 | 37060 ft | 455 kts | 123° |
| 2026-05-06 12:21 | 54.32175 | 0.48529 | 37057 ft | 455 kts | 123° |
| 2026-05-06 12:22 | 54.28964 | 0.57886 | 37056 ft | 455 kts | 123° |
| 2026-05-06 12:22 | 54.25737 | 0.67251 | 37053 ft | 456 kts | 123° |
| 2026-05-06 12:23 | 54.22503 | 0.76589 | 37055 ft | 455 kts | 123° |
| 2026-05-06 12:23 | 54.19287 | 0.85841 | 37057 ft | 455 kts | 123° |
| 2026-05-06 12:24 | 54.16044 | 0.95131 | 37055 ft | 454 kts | 123° |
| 2026-05-06 12:24 | 54.12797 | 1.04397 | 37055 ft | 454 kts | 123° |
| 2026-05-06 12:25 | 54.09553 | 1.13622 | 37046 ft | 453 kts | 124° |
| 2026-05-06 12:25 | 54.06304 | 1.22817 | 37040 ft | 453 kts | 124° |
| 2026-05-06 12:26 | 54.03045 | 1.31999 | 37036 ft | 452 kts | 124° |
| 2026-05-06 12:26 | 53.99814 | 1.41107 | 37037 ft | 452 kts | 124° |
| 2026-05-06 12:27 | 53.96556 | 1.50255 | 37030 ft | 452 kts | 124° |
| 2026-05-06 12:27 | 53.93287 | 1.59369 | 37028 ft | 451 kts | 124° |
| 2026-05-06 12:28 | 53.90006 | 1.68466 | 37019 ft | 451 kts | 124° |
| 2026-05-06 12:28 | 53.86751 | 1.77484 | 37018 ft | 451 kts | 124° |
| 2026-05-06 12:29 | 53.83468 | 1.86557 | 37017 ft | 451 kts | 124° |
| 2026-05-06 12:29 | 53.80177 | 1.95621 | 37014 ft | 450 kts | 124° |
| 2026-05-06 12:30 | 53.76885 | 2.04654 | 37010 ft | 450 kts | 124° |
| 2026-05-06 12:30 | 53.73607 | 2.13593 | 37007 ft | 450 kts | 124° |
| 2026-05-06 12:31 | 53.70304 | 2.22591 | 37002 ft | 450 kts | 124° |
| 2026-05-06 12:31 | 53.67004 | 2.31571 | 37003 ft | 450 kts | 124° |
| 2026-05-06 12:32 | 53.63690 | 2.40529 | 36998 ft | 449 kts | 124° |
| 2026-05-06 12:32 | 53.60376 | 2.49463 | 36995 ft | 449 kts | 124° |
| 2026-05-06 12:33 | 53.57051 | 2.58375 | 36996 ft | 449 kts | 124° |
| 2026-05-06 12:33 | 53.53750 | 2.67204 | 36992 ft | 448 kts | 124° |
| 2026-05-06 12:34 | 53.50409 | 2.76067 | 36991 ft | 448 kts | 124° |
| 2026-05-06 12:34 | 53.47076 | 2.84904 | 36992 ft | 447 kts | 124° |
| 2026-05-06 12:35 | 53.43744 | 2.93722 | 36986 ft | 447 kts | 125° |
| 2026-05-06 12:35 | 53.40408 | 3.02515 | 36986 ft | 446 kts | 125° |
| 2026-05-06 12:36 | 53.37090 | 3.11261 | 36980 ft | 446 kts | 125° |
| 2026-05-06 12:36 | 53.33746 | 3.20015 | 36982 ft | 446 kts | 125° |
| 2026-05-06 12:37 | 53.30392 | 3.28737 | 36978 ft | 446 kts | 125° |
| 2026-05-06 12:37 | 53.27020 | 3.37467 | 36971 ft | 446 kts | 125° |
| 2026-05-06 12:38 | 53.23426 | 3.45776 | 36972 ft | 442 kts | 134° |
| 2026-05-06 12:38 | 53.19346 | 3.53455 | 36959 ft | 442 kts | 134° |
| 2026-05-06 12:39 | 53.15257 | 3.61132 | 36959 ft | 442 kts | 134° |
| 2026-05-06 12:39 | 53.11178 | 3.68796 | 36958 ft | 442 kts | 134° |
| 2026-05-06 12:40 | 53.07093 | 3.76453 | 36950 ft | 442 kts | 134° |
| 2026-05-06 12:40 | 53.03025 | 3.84039 | 36961 ft | 441 kts | 134° |
| 2026-05-06 12:41 | 52.98929 | 3.91641 | 36954 ft | 441 kts | 134° |
| 2026-05-06 12:41 | 52.94826 | 3.99229 | 36941 ft | 441 kts | 134° |
| 2026-05-06 12:42 | 52.90732 | 4.06801 | 36946 ft | 440 kts | 134° |
| 2026-05-06 12:42 | 52.86631 | 4.14364 | 36942 ft | 440 kts | 134° |
| 2026-05-06 12:43 | 52.82532 | 4.21891 | 36940 ft | 440 kts | 135° |
| 2026-05-06 12:43 | 52.78456 | 4.29347 | 36932 ft | 440 kts | 135° |
| 2026-05-06 12:44 | 52.74347 | 4.36841 | 36928 ft | 439 kts | 135° |
| 2026-05-06 12:44 | 52.70213 | 4.44285 | 36926 ft | 439 kts | 135° |
| 2026-05-06 12:45 | 52.66069 | 4.51676 | 36922 ft | 439 kts | 135° |
| 2026-05-06 12:46 | 52.59877 | 4.62703 | 36907 ft | 438 kts | 135° |
| 2026-05-06 12:46 | 52.55730 | 4.70065 | 36900 ft | 438 kts | 135° |
| 2026-05-06 12:47 | 52.51572 | 4.77412 | 36896 ft | 438 kts | 135° |
| 2026-05-06 12:47 | 52.47411 | 4.84737 | 36744 ft | 439 kts | 135° |
| 2026-05-06 12:47 | 52.45374 | 4.88422 | 35982 ft | 443 kts | 130° |
| 2026-05-06 12:48 | 52.43703 | 4.92725 | 35003 ft | 451 kts | 122° |
| 2026-05-06 12:48 | 52.42159 | 4.97137 | 34699 ft | 441 kts | 122° |
| 2026-05-06 12:48 | 52.40644 | 5.01467 | 34290 ft | 435 kts | 122° |
| 2026-05-06 12:48 | 52.39140 | 5.05746 | 33658 ft | 433 kts | 122° |
| 2026-05-06 12:49 | 52.37630 | 5.10015 | 32897 ft | 432 kts | 122° |
| 2026-05-06 12:49 | 52.36121 | 5.14262 | 32272 ft | 429 kts | 122° |
| 2026-05-06 12:49 | 52.34607 | 5.18435 | 31703 ft | 425 kts | 124° |
| 2026-05-06 12:49 | 52.33083 | 5.22552 | 31162 ft | 421 kts | 123° |
| 2026-05-06 12:50 | 52.31556 | 5.26636 | 30620 ft | 417 kts | 123° |
| 2026-05-06 12:50 | 52.30046 | 5.30660 | 30106 ft | 414 kts | 124° |
| 2026-05-06 12:50 | 52.28545 | 5.34667 | 29520 ft | 411 kts | 123° |
| 2026-05-06 12:50 | 52.27062 | 5.38638 | 28938 ft | 407 kts | 123° |
| 2026-05-06 12:51 | 52.25598 | 5.42567 | 28360 ft | 404 kts | 123° |
| 2026-05-06 12:51 | 52.24629 | 5.45163 | 27984 ft | 402 kts | 123° |
| 2026-05-06 12:51 | 52.22706 | 5.50314 | 27241 ft | 399 kts | 123° |
| 2026-05-06 12:51 | 52.21264 | 5.54168 | 26703 ft | 396 kts | 123° |
| 2026-05-06 12:52 | 52.19829 | 5.57996 | 26171 ft | 394 kts | 123° |
| 2026-05-06 12:52 | 52.18877 | 5.60528 | 25828 ft | 393 kts | 123° |
| 2026-05-06 12:52 | 52.17451 | 5.64312 | 25328 ft | 391 kts | 123° |
| 2026-05-06 12:52 | 52.15569 | 5.69308 | 24690 ft | 388 kts | 123° |
| 2026-05-06 12:53 | 52.14611 | 5.71845 | 24363 ft | 387 kts | 123° |
| 2026-05-06 12:53 | 52.13204 | 5.75564 | 23885 ft | 385 kts | 123° |
| 2026-05-06 12:53 | 52.11818 | 5.79227 | 23412 ft | 383 kts | 123° |
| 2026-05-06 12:53 | 52.10424 | 5.82911 | 22876 ft | 381 kts | 123° |
| 2026-05-06 12:54 | 52.09033 | 5.86579 | 22381 ft | 379 kts | 123° |
| 2026-05-06 12:54 | 52.07647 | 5.90223 | 21909 ft | 376 kts | 123° |
| 2026-05-06 12:54 | 52.06282 | 5.93817 | 21449 ft | 373 kts | 123° |
| 2026-05-06 12:54 | 52.04921 | 5.97398 | 21003 ft | 370 kts | 123° |
| 2026-05-06 12:55 | 52.03566 | 6.00951 | 20538 ft | 368 kts | 123° |
| 2026-05-06 12:55 | 52.02221 | 6.04474 | 20090 ft | 365 kts | 123° |
| 2026-05-06 12:55 | 52.00886 | 6.07963 | 19661 ft | 362 kts | 123° |
| 2026-05-06 12:55 | 51.99561 | 6.11429 | 19237 ft | 360 kts | 123° |
| 2026-05-06 12:56 | 51.98261 | 6.14826 | 18811 ft | 357 kts | 123° |
| 2026-05-06 12:56 | 51.96950 | 6.18247 | 18391 ft | 355 kts | 123° |
| 2026-05-06 12:56 | 51.95649 | 6.21635 | 17949 ft | 353 kts | 123° |
| 2026-05-06 12:56 | 51.94352 | 6.25003 | 17481 ft | 351 kts | 122° |
| 2026-05-06 12:57 | 51.93060 | 6.28358 | 17033 ft | 349 kts | 122° |
| 2026-05-06 12:57 | 51.91781 | 6.31683 | 16589 ft | 347 kts | 122° |
| 2026-05-06 12:57 | 51.90509 | 6.34987 | 16171 ft | 344 kts | 122° |
| 2026-05-06 12:57 | 51.89100 | 6.38087 | 15853 ft | 339 kts | 136° |
| 2026-05-06 12:58 | 51.87226 | 6.40284 | 15654 ft | 331 kts | 154° |
| 2026-05-06 12:58 | 51.85049 | 6.41383 | 15310 ft | 327 kts | 173° |
| 2026-05-06 12:58 | 51.82777 | 6.41342 | 14923 ft | 326 kts | 185° |
| 2026-05-06 12:58 | 51.80518 | 6.41005 | 14613 ft | 326 kts | 185° |
| 2026-05-06 12:59 | 51.78251 | 6.40664 | 14364 ft | 326 kts | 185° |
| 2026-05-06 12:59 | 51.76018 | 6.40330 | 14131 ft | 326 kts | 185° |
| 2026-05-06 12:59 | 51.73761 | 6.39994 | 13887 ft | 326 kts | 184° |
| 2026-05-06 12:59 | 51.71510 | 6.39664 | 13646 ft | 325 kts | 184° |
| 2026-05-06 13:00 | 51.69264 | 6.39338 | 13363 ft | 324 kts | 184° |
| 2026-05-06 13:00 | 51.67017 | 6.39014 | 13112 ft | 323 kts | 184° |
| 2026-05-06 13:00 | 51.64782 | 6.38690 | 12846 ft | 323 kts | 184° |
| 2026-05-06 13:00 | 51.62542 | 6.38364 | 12576 ft | 322 kts | 184° |
| 2026-05-06 13:01 | 51.60312 | 6.38041 | 12311 ft | 321 kts | 184° |
| 2026-05-06 13:01 | 51.58080 | 6.37718 | 12054 ft | 320 kts | 185° |
| 2026-05-06 13:01 | 51.55861 | 6.37394 | 11787 ft | 319 kts | 185° |
| 2026-05-06 13:01 | 51.53667 | 6.37073 | 11529 ft | 312 kts | 185° |
| 2026-05-06 13:02 | 51.51524 | 6.36761 | 11277 ft | 308 kts | 185° |
| 2026-05-06 13:02 | 51.49397 | 6.36458 | 11024 ft | 306 kts | 185° |
| 2026-05-06 13:02 | 51.47285 | 6.36156 | 10771 ft | 305 kts | 185° |
| 2026-05-06 13:02 | 51.45176 | 6.35840 | 10462 ft | 303 kts | 185° |
| 2026-05-06 13:03 | 51.43083 | 6.35527 | 10096 ft | 301 kts | 185° |
| 2026-05-06 13:03 | 51.41001 | 6.35221 | 9703 ft | 300 kts | 185° |
| 2026-05-06 13:03 | 51.38924 | 6.34919 | 9296 ft | 299 kts | 185° |
| 2026-05-06 13:03 | 51.36858 | 6.34615 | 8971 ft | 296 kts | 185° |
| 2026-05-06 13:04 | 51.34832 | 6.34317 | 8666 ft | 295 kts | 185° |
| 2026-05-06 13:04 | 51.32794 | 6.34015 | 8392 ft | 293 kts | 185° |
| 2026-05-06 13:04 | 51.30772 | 6.33711 | 7925 ft | 289 kts | 185° |
| 2026-05-06 13:04 | 51.28773 | 6.33420 | 7260 ft | 286 kts | 185° |
| 2026-05-06 13:05 | 51.26799 | 6.33137 | 6602 ft | 283 kts | 185° |
| 2026-05-06 13:05 | 51.24844 | 6.32857 | 5931 ft | 280 kts | 185° |
| 2026-05-06 13:05 | 51.22904 | 6.32585 | 5388 ft | 280 kts | 184° |
| 2026-05-06 13:05 | 51.21011 | 6.32991 | 5119 ft | 270 kts | 156° |
| 2026-05-06 13:06 | 51.19504 | 6.34617 | 4950 ft | 256 kts | 136° |
| 2026-05-06 13:06 | 51.18228 | 6.36560 | 4676 ft | 253 kts | 133° |
| 2026-05-06 13:06 | 51.17003 | 6.38513 | 4387 ft | 251 kts | 130° |
| 2026-05-06 13:06 | 51.16141 | 6.40861 | 4122 ft | 244 kts | 107° |
| 2026-05-06 13:07 | 51.15637 | 6.43400 | 3958 ft | 235 kts | 104° |
| 2026-05-06 13:07 | 51.15283 | 6.45883 | 3825 ft | 225 kts | 91° |
| 2026-05-06 13:07 | 51.15440 | 6.48326 | 3695 ft | 220 kts | 70° |
| 2026-05-06 13:07 | 51.16107 | 6.50481 | 3568 ft | 214 kts | 50° |
| 2026-05-06 13:08 | 51.17000 | 6.52340 | 3438 ft | 206 kts | 50° |
| 2026-05-06 13:08 | 51.17858 | 6.54117 | 3307 ft | 199 kts | 50° |
| 2026-05-06 13:08 | 51.18692 | 6.55851 | 3214 ft | 195 kts | 50° |
| 2026-05-06 13:08 | 51.19494 | 6.57518 | 3004 ft | 190 kts | 50° |
| 2026-05-06 13:09 | 51.20296 | 6.59187 | 2756 ft | 188 kts | 50° |
| 2026-05-06 13:09 | 51.21084 | 6.60830 | 2531 ft | 184 kts | 50° |
| 2026-05-06 13:09 | 51.21849 | 6.62425 | 2258 ft | 178 kts | 50° |
| 2026-05-06 13:09 | 51.22590 | 6.63970 | 2007 ft | 172 kts | 50° |
| 2026-05-06 13:10 | 51.23282 | 6.65416 | 1794 ft | 153 kts | 50° |
| 2026-05-06 13:10 | 51.23899 | 6.66706 | 1593 ft | 141 kts | 49° |
| 2026-05-06 13:10 | 51.24490 | 6.67941 | 1373 ft | 140 kts | 49° |
| 2026-05-06 13:10 | 51.25083 | 6.69177 | 1176 ft | 140 kts | 50° |
| 2026-05-06 13:11 | 51.25664 | 6.70387 | 954 ft | 136 kts | 48° |
| 2026-05-06 13:11 | 51.26234 | 6.71583 | 791 ft | 137 kts | 50° |
| 2026-05-06 13:11 | 51.26825 | 6.72822 | 623 ft | 142 kts | 49° |
| 2026-05-06 13:11 | 51.27426 | 6.74086 | 416 ft | 141 kts | 47° |
| 2026-05-06 13:12 | 51.28019 | 6.75327 | 200 ft | 138 kts | 49° |
| 2026-05-06 13:12 | 51.28572 | 6.76480 | 128 ft | 114 kts | 53° |
| 2026-05-06 13:12 | 51.28948 | 6.77270 | 126 ft | 57 kts | 53° |
| 2026-05-06 13:12 | 51.29040 | 6.77482 | 130 ft | 12 kts | 82° |
| 2026-05-06 13:13 | 51.29008 | 6.77564 | 127 ft | 8 kts | 135° |
| 2026-05-06 13:13 | 51.28977 | 6.77604 | 127 ft | 4 kts | 140° |
| 2026-05-06 13:13 | 51.28946 | 6.77641 | 129 ft | 11 kts | 143° |
| 2026-05-06 13:13 | 51.28908 | 6.77655 | 130 ft | 3 kts | 212° |
| 2026-05-06 13:14 | 51.28877 | 6.77591 | 130 ft | 14 kts | 232° |
| 2026-05-06 13:14 | 51.28815 | 6.77462 | 130 ft | 13 kts | 234° |
| 2026-05-06 13:14 | 51.28770 | 6.77364 | 128 ft | 9 kts | 233° |
| 2026-05-06 13:14 | 51.28741 | 6.77302 | 128 ft | 6 kts | 232° |
| 2026-05-06 13:15 | 51.28682 | 6.77182 | 130 ft | 18 kts | 235° |
| 2026-05-06 13:15 | 51.28618 | 6.77047 | 130 ft | 15 kts | 232° |
| 2026-05-06 13:15 | 51.28552 | 6.76908 | 125 ft | 14 kts | 233° |
| 2026-05-06 13:15 | 51.28488 | 6.76778 | 127 ft | 14 kts | 230° |
| 2026-05-06 13:16 | 51.28434 | 6.76673 | 124 ft | 10 kts | 235° |
| 2026-05-06 13:16 | 51.28391 | 6.76573 | 121 ft | 14 kts | 235° |
| 2026-05-06 13:16 | 51.28329 | 6.76441 | 124 ft | 14 kts | 235° |
| 2026-05-06 13:16 | 51.28283 | 6.76341 | 125 ft | 10 kts | 232° |
| 2026-05-06 13:17 | 51.28238 | 6.76253 | 128 ft | 9 kts | 223° |
| 2026-05-06 13:17 | 51.28188 | 6.76248 | 128 ft | 7 kts | 158° |
| 2026-05-06 13:17 | 51.28140 | 6.76228 | 130 ft | 9 kts | 223° |
| 2026-05-06 13:17 | 51.28101 | 6.76191 | 126 ft | 4 kts | 175° |
| 2026-05-06 13:18 | 51.28076 | 6.76203 | 129 ft | 6 kts | 163° |
| 2026-05-06 13:18 | 51.28044 | 6.76219 | 126 ft | 2 kts | 163° |
| 2026-05-06 13:18 | 51.28041 | 6.76221 | 127 ft | 1 kts | 163° |